Terminal Aerodrome Forecast
Issued by NWS Wilmington, OH

Home | Current Version | Previous Version | Text Only | Print | Product List | Glossary On
Versions: 1 2 3 4 5 6 7 8 9 10 11 12 13 14 15 16 17 18 19 20 21 22 23 24 25 26 27 28
450
FTUS41 KILN 101734
TAFCMH
TAF
KCMH 101734Z 1018/1118 28013G19KT P6SM BKN025 BKN250
     FM102300 28007KT P6SM BKN250
     FM111000 22006KT P6SM SKC
     FM111700 26012KT P6SM FEW070=

USA.gov is the U.S. government's official web portal to all federal, state and local government web resources and services.